Time;durP1;ratioP1;P1;durP2;ratioP2;P2;SDS_P1;SDS_P2;PMS_P1;PMS_P2;Temp;Humidity;BMP_temperature;BMP_pressure;BME280_temperature;BME280_humidity;BME280_pressure;Samples;Min_cycle;Max_cycle;Signal;HPM_P1;HPM_P2
2021/07/17 00:00:12;;;;;;;25.90;14.90;;;;;;;23.00;61.76;99454.94;5005889;28;20037;-77
2021/07/17 00:02:44;;;;;;;18.75;13.70;;;;;;;23.10;61.94;99474.59;5056828;28;20033;-77
2021/07/17 00:05:12;;;;;;;21.77;14.75;;;;;;;23.07;62.02;99476.59;5038180;28;20053;-79
2021/07/17 00:07:39;;;;;;;18.88;13.45;;;;;;;23.13;61.74;99481.50;5011327;28;20037;-77
2021/07/17 00:10:11;;;;;;;22.13;14.90;;;;;;;23.09;62.01;99480.84;5019566;28;20578;-78
2021/07/17 00:12:37;;;;;;;;;;;;;;;23.09;62.01;99483.50;5019115;28;20052;-78
2021/07/17 00:15:04;;;;;;;20.25;13.25;;;;;;;22.98;62.20;99470.94;5001390;28;19917;-79
2021/07/17 00:17:30;;;;;;;21.23;14.07;;;;;;;22.92;62.36;99454.59;5035142;28;20037;-79
2021/07/17 00:19:56;;;;;;;19.08;14.48;;;;;;;22.96;62.75;99469.34;5016732;28;20055;-79
2021/07/17 00:22:22;;;;;;;22.13;13.63;;;;;;;22.97;62.92;99469.25;5015001;28;20171;-79
2021/07/17 00:24:48;;;;;;;19.48;12.93;;;;;;;22.92;63.09;99466.06;4997877;28;20424;-78
2021/07/17 00:27:14;;;;;;;22.27;14.60;;;;;;;22.84;62.71;99463.06;5014146;28;20045;-79
2021/07/17 00:29:40;;;;;;;21.92;12.93;;;;;;;22.59;62.63;99426.69;4997433;28;20041;-79
2021/07/17 00:32:06;;;;;;;24.02;13.73;;;;;;;22.79;63.14;99473.09;4997882;28;20075;-77
2021/07/17 00:34:32;;;;;;;19.77;13.98;;;;;;;22.64;63.08;99456.38;5031288;28;20055;-77
2021/07/17 00:37:00;;;;;;;20.88;13.77;;;;;;;22.67;62.93;99480.06;5014373;28;20041;-80
2021/07/17 00:39:26;;;;;;;22.35;13.98;;;;;;;22.42;63.18;99448.03;5014261;28;20037;-77
2021/07/17 00:41:53;;;;;;;15.82;13.77;;;;;;;22.57;63.59;99479.78;4998684;28;20509;-77
2021/07/17 00:44:20;;;;;;;23.48;14.75;;;;;;;22.59;63.52;99479.72;5037304;28;20037;-78
2021/07/17 00:46:46;;;;;;;17.67;14.25;;;;;;;22.42;64.02;99463.94;5005998;28;20041;-80
2021/07/17 00:49:13;;;;;;;21.75;14.18;;;;;;;22.47;64.04;99462.78;4998922;28;20073;-77
2021/07/17 00:51:39;;;;;;;20.73;13.93;;;;;;;22.56;63.97;99488.69;5000975;28;20048;-79
2021/07/17 00:54:06;;;;;;;22.60;14.90;;;;;;;22.35;63.96;99451.16;5021136;28;20042;-78
2021/07/17 00:56:33;;;;;;;17.30;13.45;;;;;;;22.51;64.41;99474.91;5044307;28;20045;-77
2021/07/17 00:59:02;;;;;;;20.33;13.55;;;;;;;22.44;64.38;99468.28;5004095;28;20064;-77
2021/07/17 01:01:31;;;;;;;18.25;13.18;;;;;;;22.53;64.61;99479.16;5018197;28;20042;-79
2021/07/17 01:03:57;;;;;;;15.25;13.25;;;;;;;22.53;64.57;99481.81;5022799;28;20044;-81
2021/07/17 01:06:23;;;;;;;18.45;13.15;;;;;;;22.50;64.21;99473.22;5022283;28;20049;-79
2021/07/17 01:08:49;;;;;;;16.88;12.93;;;;;;;22.46;64.61;99469.88;5018253;28;20324;-78
2021/07/17 01:11:15;;;;;;;18.35;13.80;;;;;;;22.46;64.57;99467.22;5013456;28;20033;-78
2021/07/17 01:13:41;;;;;;;16.25;12.48;;;;;;;22.54;64.63;99486.16;5032098;28;20041;-78
2021/07/17 01:16:07;;;;;;;18.58;12.52;;;;;;;22.53;64.54;99486.25;4997771;28;20094;-76
2021/07/17 01:18:37;;;;;;;17.48;13.50;;;;;;;22.50;64.34;99479.34;5031746;28;20132;-77
2021/07/17 01:21:09;;;;;;;17.75;12.65;;;;;;;22.50;64.53;99476.69;5014630;28;20045;-77
2021/07/17 01:23:36;;;;;;;18.40;13.30;;;;;;;22.52;64.28;99474.81;4997395;28;20513;-77
2021/07/17 01:26:02;;;;;;;22.92;14.38;;;;;;;22.52;64.79;99484.53;5031922;28;20041;-79
2021/07/17 01:28:28;;;;;;;17.45;13.70;;;;;;;22.46;64.71;99474.34;5013316;28;20034;-76
2021/07/17 01:30:54;;;;;;;15.60;12.90;;;;;;;22.44;64.75;99466.47;5031888;28;20540;-76
2021/07/17 01:33:20;;;;;;;20.85;14.05;;;;;;;22.45;64.94;99475.28;5014246;28;20048;-79
2021/07/17 01:35:48;;;;;;;17.65;13.27;;;;;;;22.53;65.13;99484.47;5013857;28;20045;-77
2021/07/17 01:38:14;;;;;;;19.58;13.80;;;;;;;22.46;65.30;99472.53;5031419;28;20456;-77
2021/07/17 01:40:40;;;;;;;15.82;12.88;;;;;;;22.46;64.89;99469.03;5031084;28;20037;-75
2021/07/17 01:43:06;;;;;;;18.02;13.27;;;;;;;22.58;65.07;99486.81;4997465;28;20049;-75
2021/07/17 01:45:40;;;;;;;16.73;13.80;;;;;;;22.60;65.13;99486.72;5032822;28;20045;-76
2021/07/17 01:48:10;;;;;;;15.23;12.93;;;;;;;22.63;65.36;99483.84;5035153;28;20049;-76
2021/07/17 01:50:37;;;;;;;17.33;13.15;;;;;;;22.61;65.27;99476.00;5017279;28;20041;-76
2021/07/17 01:53:05;;;;;;;17.08;12.88;;;;;;;22.67;65.35;99474.75;5043502;28;20071;-77
2021/07/17 01:55:31;;;;;;;15.63;12.60;;;;;;;22.68;65.14;99463.19;5016171;28;20049;-77
2021/07/17 01:57:58;;;;;;;15.40;12.40;;;;;;;22.76;65.16;99481.25;5000813;28;20048;-77
2021/07/17 02:00:25;;;;;;;18.13;13.48;;;;;;;22.76;65.03;99463.56;5033785;28;20052;-77
2021/07/17 02:02:51;;;;;;;18.38;12.50;;;;;;;22.85;64.75;99476.19;5016989;28;20041;-77
2021/07/17 02:05:19;;;;;;;15.68;13.20;;;;;;;22.93;64.94;99473.06;5016895;28;20416;-78
2021/07/17 02:07:46;;;;;;;15.68;12.95;;;;;;;22.95;64.68;99465.00;5017528;28;20045;-78
2021/07/17 02:10:16;;;;;;;17.40;13.57;;;;;;;22.99;64.71;99466.50;5001340;28;20035;-77
2021/07/17 02:13:13;;;;;;;15.00;13.18;;;;;;;22.99;64.51;99461.19;5000044;28;20037;-77
2021/07/17 02:15:45;;;;;;;18.80;12.45;;;;;;;23.12;64.51;99472.69;4987660;28;20056;-77
2021/07/17 02:18:15;;;;;;;20.08;13.23;;;;;;;23.18;64.61;99471.41;5016321;28;20033;-77
2021/07/17 02:20:42;;;;;;;17.08;12.93;;;;;;;23.18;64.39;99458.16;5015738;28;20044;-76
2021/07/17 02:23:08;;;;;;;15.80;12.68;;;;;;;23.33;64.50;99480.19;5019462;28;20431;-77
2021/07/17 02:25:34;;;;;;;17.67;13.15;;;;;;;23.39;64.32;99473.66;5014381;28;20041;-78
2021/07/17 02:28:00;;;;;;;15.23;12.90;;;;;;;23.36;64.21;99464.06;5013433;28;20049;-75
2021/07/17 02:30:27;;;;;;;15.90;12.40;;;;;;;23.33;63.93;99437.72;4996519;28;20033;-78
2021/07/17 02:32:54;;;;;;;20.35;13.20;;;;;;;23.53;63.82;99464.72;4980753;28;20034;-78
2021/07/17 02:35:20;;;;;;;20.08;13.00;;;;;;;23.67;63.72;99472.59;4981027;28;20136;-77
2021/07/17 02:37:46;;;;;;;18.58;13.70;;;;;;;23.63;63.41;99455.19;5014212;28;20068;-78
2021/07/17 02:40:12;;;;;;;14.50;12.95;;;;;;;23.75;63.49;99462.28;4996370;28;20517;-76
2021/07/17 02:42:38;;;;;;;17.45;12.52;;;;;;;23.77;63.23;99451.56;4996500;28;20033;-75
2021/07/17 02:45:06;;;;;;;21.45;13.77;;;;;;;23.88;62.98;99459.63;5013821;28;20057;-76
2021/07/17 02:47:33;;;;;;;16.42;13.18;;;;;;;23.94;62.85;99457.50;4979065;28;20042;-76
2021/07/17 02:49:59;;;;;;;16.50;12.60;;;;;;;24.02;62.60;99457.84;5014334;28;20049;-77
2021/07/17 02:52:25;;;;;;;18.05;13.05;;;;;;;23.97;62.51;99433.38;4995763;28;20504;-77
2021/07/17 02:54:51;;;;;;;16.27;13.23;;;;;;;24.29;62.38;99467.47;5013320;28;20037;-74
2021/07/17 02:57:16;;;;;;;17.50;11.75;;;;;;;24.35;62.17;99467.91;4995168;28;20048;-76
2021/07/17 02:59:44;;;;;;;17.23;12.13;;;;;;;24.34;61.69;99449.38;5017333;28;20070;-78
2021/07/17 03:02:10;;;;;;;17.17;12.30;;;;;;;24.50;61.56;99459.75;5002981;28;20073;-78
2021/07/17 03:04:36;;;;;;;16.90;12.38;;;;;;;24.58;61.22;99467.19;5014868;28;20527;-77
2021/07/17 03:07:02;;;;;;;17.15;12.02;;;;;;;24.60;61.10;99463.47;4996613;28;20133;-78
2021/07/17 03:09:27;;;;;;;16.13;12.20;;;;;;;24.60;61.06;99439.53;4996997;28;20112;-77
2021/07/17 03:11:53;;;;;;;17.08;11.35;;;;;;;24.78;60.68;99453.28;4982237;28;20444;-77
2021/07/17 03:14:19;;;;;;;13.02;11.45;;;;;;;24.95;60.31;99465.34;5017167;28;20093;-78
2021/07/17 03:16:45;;;;;;;15.98;11.70;;;;;;;25.03;60.03;99464.78;5005262;28;20042;-77
2021/07/17 03:19:11;;;;;;;14.45;11.27;;;;;;;25.10;59.92;99462.50;4995914;28;20077;-79
2021/07/17 03:21:37;;;;;;;16.88;11.02;;;;;;;25.22;59.39;99466.91;5015461;28;20041;-77
2021/07/17 03:24:03;;;;;;;11.45;10.20;;;;;;;25.31;59.27;99459.19;4998444;28;20490;-77
2021/07/17 03:26:29;;;;;;;12.90;10.55;;;;;;;25.53;59.07;99469.91;5033514;28;20041;-78
2021/07/17 03:28:55;;;;;;;13.05;11.27;;;;;;;25.64;58.58;99476.25;4998454;28;20052;-78
2021/07/17 03:31:33;;;;;;;13.52;11.60;;;;;;;25.73;58.46;99464.03;5033105;28;20049;-77
2021/07/17 03:34:00;;;;;;;13.85;10.75;;;;;;;25.83;57.94;99465.84;5035047;28;20053;-78
2021/07/17 03:36:27;;;;;;;15.70;12.15;;;;;;;25.89;57.38;99461.84;5001565;28;20045;-77
2021/07/17 03:38:53;;;;;;;17.73;11.98;;;;;;;26.08;57.58;99471.06;5016352;28;20045;-76
2021/07/17 03:41:19;;;;;;;14.20;12.25;;;;;;;26.18;56.99;99469.41;5014483;28;20037;-76
2021/07/17 03:43:46;;;;;;;15.55;11.95;;;;;;;26.29;56.76;99466.72;5015171;28;20041;-79
2021/07/17 03:46:13;;;;;;;15.30;12.00;;;;;;;26.50;56.57;99467.78;5032724;28;20045;-78
2021/07/17 03:48:39;;;;;;;18.23;12.75;;;;;;;26.66;56.40;99470.06;5015155;28;20037;-77
2021/07/17 03:51:06;;;;;;;16.38;12.07;;;;;;;26.65;56.33;99442.50;5032689;28;20047;-78
2021/07/17 03:53:33;;;;;;;16.80;12.65;;;;;;;26.96;55.40;99468.53;5015290;28;20059;-77
2021/07/17 03:55:59;;;;;;;15.70;12.15;;;;;;;27.10;54.91;99480.72;5017084;28;20033;-78
2021/07/17 03:58:26;;;;;;;14.73;11.88;;;;;;;27.21;54.92;99473.50;5018276;28;20061;-77
2021/07/17 04:00:52;;;;;;;16.23;11.52;;;;;;;27.36;54.59;99471.38;5034557;28;20045;-75
2021/07/17 04:03:18;;;;;;;16.58;11.32;;;;;;;27.57;54.13;99473.22;5016721;28;20091;-76
2021/07/17 04:05:44;;;;;;;16.38;10.77;;;;;;;27.71;53.73;99473.84;5033744;28;20480;-77
2021/07/17 04:08:11;;;;;;;15.90;12.20;;;;;;;27.77;53.55;99460.84;5024614;28;20056;-76
2021/07/17 04:10:36;;;;;;;15.02;11.95;;;;;;;27.93;53.02;99463.00;5018699;28;20115;-79
2021/07/17 04:13:06;;;;;;;15.73;12.02;;;;;;;28.18;52.78;99471.56;5000834;28;20069;-78
2021/07/17 04:15:32;;;;;;;15.60;12.55;;;;;;;28.25;52.61;99459.34;5033663;28;20466;-78
2021/07/17 04:17:58;;;;;;;22.52;13.68;;;;;;;28.41;51.92;99464.19;5016733;28;20049;-77
2021/07/17 04:20:24;;;;;;;14.02;11.82;;;;;;;28.56;51.89;99470.00;5016225;28;20125;-77
2021/07/17 04:22:52;;;;;;;18.38;11.40;;;;;;;28.69;51.39;99463.53;4999360;28;20204;-76
2021/07/17 04:25:18;;;;;;;12.98;10.98;;;;;;;28.71;50.91;99466.91;5032496;28;20068;-77
2021/07/17 04:27:44;;;;;;;14.48;11.50;;;;;;;28.86;51.25;99464.72;5014765;28;20076;-77
2021/07/17 04:30:12;;;;;;;12.65;11.45;;;;;;;29.00;50.51;99458.09;5032598;28;20044;-78
2021/07/17 04:32:37;;;;;;;13.82;11.48;;;;;;;29.13;50.05;99455.13;5030709;28;20048;-75
2021/07/17 04:35:05;;;;;;;14.27;10.63;;;;;;;29.09;49.94;99438.50;5016169;28;20067;-76
2021/07/17 04:37:31;;;;;;;12.18;10.88;;;;;;;29.45;49.76;99467.38;5017105;28;20037;-77
2021/07/17 04:39:57;;;;;;;11.38;10.23;;;;;;;29.63;49.05;99467.50;5032440;28;20119;-78
2021/07/17 04:42:23;;;;;;;13.57;10.35;;;;;;;29.66;48.72;99472.56;5031418;28;20041;-78
2021/07/17 04:44:49;;;;;;;13.90;9.75;;;;;;;29.69;48.43;99456.16;4998356;28;20037;-78
2021/07/17 04:47:15;;;;;;;11.23;9.73;;;;;;;29.93;47.88;99465.53;5032074;28;20111;-77
2021/07/17 04:49:41;;;;;;;12.73;10.23;;;;;;;30.08;47.10;99460.56;5014687;28;20041;-77
2021/07/17 04:52:07;;;;;;;13.38;10.30;;;;;;;30.23;46.99;99466.28;5035040;28;20060;-77
2021/07/17 04:54:33;;;;;;;12.50;10.20;;;;;;;30.36;46.65;99461.41;5017477;28;20046;-76
2021/07/17 04:56:59;;;;;;;13.38;10.23;;;;;;;30.41;46.06;99447.56;5033610;28;20041;-76
2021/07/17 04:59:25;;;;;;;12.70;10.30;;;;;;;30.69;45.84;99470.84;5033311;28;20474;-76
2021/07/17 05:01:50;;;;;;;11.93;10.32;;;;;;;30.87;45.25;99465.50;5015737;28;20110;-78
2021/07/17 05:04:19;;;;;;;12.23;10.90;;;;;;;30.98;45.01;99464.44;4998791;28;20420;-77
2021/07/17 05:06:45;;;;;;;15.40;10.93;;;;;;;30.92;44.42;99450.59;5015154;28;20056;-77
2021/07/17 05:09:11;;;;;;;13.82;9.88;;;;;;;31.11;44.65;99456.81;4997422;28;20416;-79
2021/07/17 05:11:39;;;;;;;11.57;10.38;;;;;;;31.33;44.28;99468.09;5014705;28;20045;-77
2021/07/17 05:14:05;;;;;;;14.15;10.55;;;;;;;31.46;43.67;99456.94;4997980;28;20041;-77
2021/07/17 05:16:31;;;;;;;12.70;9.90;;;;;;;31.59;43.41;99449.28;5043452;28;20088;-77
2021/07/17 05:18:57;;;;;;;14.65;11.38;;;;;;;31.83;42.88;99470.13;5015809;28;20525;-78
2021/07/17 05:21:23;;;;;;;17.13;11.02;;;;;;;32.01;42.39;99474.59;5046050;28;20052;-78
2021/07/17 05:23:49;;;;;;;13.35;10.20;;;;;;;32.13;42.13;99473.28;5049504;28;20053;-77
2021/07/17 05:26:15;;;;;;;12.88;11.05;;;;;;;32.29;41.75;99469.03;4994942;28;20041;-77
2021/07/17 05:28:40;;;;;;;15.15;11.02;;;;;;;32.33;41.79;99439.94;5046055;28;20041;-78
2021/07/17 05:31:06;;;;;;;11.63;10.43;;;;;;;32.62;41.52;99469.09;5047330;28;20048;-79
2021/07/17 05:33:32;;;;;;;13.52;10.68;;;;;;;32.70;40.95;99447.59;5013644;28;20076;-79
2021/07/17 05:35:58;;;;;;;14.32;11.55;;;;;;;33.02;40.30;99456.72;5013048;28;20083;-79
2021/07/17 05:38:24;;;;;;;12.43;11.02;;;;;;;33.22;39.71;99455.56;5031210;28;20508;-78
2021/07/17 05:40:50;;;;;;;13.73;11.25;;;;;;;33.42;39.14;99461.47;5050853;28;20048;-78
2021/07/17 05:43:16;;;;;;;12.20;10.75;;;;;;;33.48;38.84;99464.31;5051161;28;20037;-78
2021/07/17 05:45:42;;;;;;;16.98;10.73;;;;;;;33.72;38.38;99456.34;5035109;28;20037;-78
2021/07/17 05:48:08;;;;;;;11.80;10.38;;;;;;;34.11;38.34;99469.03;5036132;28;20056;-79
2021/07/17 05:50:33;;;;;;;13.18;11.18;;;;;;;34.49;37.84;99463.84;5055778;28;20056;-78
2021/07/17 05:53:11;;;;;;;13.93;10.30;;;;;;;35.63;36.64;99467.72;5033152;28;20163;-79
2021/07/17 05:55:37;;;;;;;10.65;9.60;;;;;;;37.18;34.50;99450.56;5015767;28;20105;-77
2021/07/17 05:58:03;;;;;;;12.77;10.55;;;;;;;39.01;31.95;99453.97;5033155;28;20045;-77
2021/07/17 06:00:28;;;;;;;13.02;10.18;;;;;;;40.54;29.79;99453.81;5029208;28;20041;-78
2021/07/17 06:02:55;;;;;;;12.10;10.50;;;;;;;41.90;27.88;99462.56;5051503;28;20033;-79
2021/07/17 06:05:21;;;;;;;12.85;9.98;;;;;;;42.88;26.84;99460.66;5053491;28;20033;-78
2021/07/17 06:07:48;;;;;;;13.13;9.80;;;;;;;44.02;24.86;99454.19;4985443;28;20041;-77
2021/07/17 06:10:15;;;;;;;11.10;9.88;;;;;;;45.07;23.35;99459.41;5052270;28;20056;-78
2021/07/17 06:12:40;;;;;;;11.70;9.48;;;;;;;45.93;22.35;99465.59;5001765;28;20057;-76
2021/07/17 06:15:07;;;;;;;11.35;9.25;;;;;;;46.79;20.50;99459.66;5043413;28;20047;-78
2021/07/17 06:17:33;;;;;;;11.90;9.95;;;;;;;47.32;20.18;99466.16;5001878;28;20044;-77
2021/07/17 06:19:59;;;;;;;13.35;10.10;;;;;;;47.97;19.16;99461.56;5017754;28;20045;-78
2021/07/17 06:22:25;;;;;;;15.63;9.90;;;;;;;48.58;18.28;99457.28;5003515;28;20061;-76
2021/07/17 06:24:51;;;;;;;10.85;9.85;;;;;;;49.24;17.53;99458.38;5039975;28;20030;-77
2021/07/17 06:27:17;;;;;;;11.32;10.07;;;;;;;49.73;16.79;99443.03;5033605;28;20052;-78
2021/07/17 06:29:43;;;;;;;10.65;9.55;;;;;;;50.34;16.20;99433.63;5033815;28;20056;-76
2021/07/17 06:32:08;;;;;;;10.30;9.30;;;;;;;50.93;15.30;99450.31;5015318;28;20165;-78
2021/07/17 06:34:34;;;;;;;12.43;9.95;;;;;;;51.44;14.67;99453.69;5015794;28;20118;-76
2021/07/17 06:37:00;;;;;;;14.05;10.68;;;;;;;51.99;14.74;99452.47;5016031;28;20057;-77
2021/07/17 06:39:26;;;;;;;12.40;11.10;;;;;;;52.36;13.72;99453.63;5032097;28;20041;-76
2021/07/17 06:41:52;;;;;;;11.70;10.60;;;;;;;52.80;13.45;99451.53;5014615;28;20513;-79
2021/07/17 06:44:18;;;;;;;11.55;10.43;;;;;;;53.11;13.21;99452.94;5033784;28;20105;-78
2021/07/17 06:46:44;;;;;;;11.45;10.57;;;;;;;53.40;12.50;99446.28;5033880;28;20485;-77
2021/07/17 06:49:11;;;;;;;11.02;10.13;;;;;;;53.58;12.37;99445.34;5016050;28;20045;-78
2021/07/17 06:51:37;;;;;;;46.38;19.83;;;;;;;53.41;12.15;99445.16;5035699;28;20056;-79
2021/07/17 06:54:04;;;;;;;12.73;11.43;;;;;;;53.54;11.78;99441.53;5034633;28;20523;-77
2021/07/17 06:56:30;;;;;;;11.82;10.50;;;;;;;54.17;11.61;99453.00;5015400;28;20037;-79
2021/07/17 06:58:57;;;;;;;11.23;10.23;;;;;;;54.55;11.14;99442.66;5015416;28;20099;-79
2021/07/17 07:01:23;;;;;;;11.35;10.25;;;;;;;54.89;10.64;99442.06;5032246;28;20069;-76
2021/07/17 07:03:49;;;;;;;36.58;11.02;;;;;;;55.04;10.92;99440.84;5033141;28;20045;-76
2021/07/17 07:06:15;;;;;;;11.98;10.82;;;;;;;55.09;10.72;99437.88;5033647;28;20068;-76
2021/07/17 07:08:41;;;;;;;14.93;10.73;;;;;;;55.17;10.67;99441.03;5015252;28;20037;-76
2021/07/17 07:11:07;;;;;;;11.65;10.73;;;;;;;55.04;10.33;99434.44;5014426;28;20037;-77
2021/07/17 07:13:33;;;;;;;11.95;10.75;;;;;;;55.00;10.59;99436.22;5032797;28;20049;-78
2021/07/17 07:15:59;;;;;;;12.57;10.70;;;;;;;54.07;10.62;99428.19;5033436;28;20045;-78
2021/07/17 07:18:25;;;;;;;11.73;10.57;;;;;;;53.36;11.03;99436.91;5015566;28;20064;-77
2021/07/17 07:20:52;;;;;;;11.90;10.85;;;;;;;52.59;10.99;99415.00;5031668;28;20115;-79
2021/07/17 07:23:18;;;;;;;11.45;10.35;;;;;;;52.78;11.21;99427.97;4998636;28;20513;-76
2021/07/17 07:25:46;;;;;;;10.98;9.93;;;;;;;53.96;10.53;99432.38;5015222;28;20059;-78
2021/07/17 07:28:12;;;;;;;11.15;10.15;;;;;;;54.61;10.21;99430.28;5029302;28;20044;-77
2021/07/17 07:30:38;;;;;;;11.88;10.70;;;;;;;54.78;10.13;99421.19;5048153;28;20037;-78
2021/07/17 07:33:04;;;;;;;11.65;10.65;;;;;;;54.77;9.61;99413.97;5015456;28;20048;-78
2021/07/17 07:35:30;;;;;;;11.43;10.38;;;;;;;54.77;9.65;99423.16;5014538;28;20037;-79
2021/07/17 07:37:56;;;;;;;11.27;10.40;;;;;;;54.90;9.33;99409.44;5015227;28;20041;-76
2021/07/17 07:40:25;;;;;;;11.57;10.57;;;;;;;54.98;10.00;99416.22;5015232;28;20056;-76
2021/07/17 07:42:51;;;;;;;11.35;10.30;;;;;;;54.70;9.95;99420.00;5014696;28;20037;-77
2021/07/17 07:45:18;;;;;;;10.90;9.90;;;;;;;54.81;9.61;99403.84;5032184;28;20065;-78
2021/07/17 07:47:44;;;;;;;9.80;8.88;;;;;;;55.37;9.81;99409.03;5014503;28;20053;-77
2021/07/17 07:50:10;;;;;;;11.10;10.13;;;;;;;56.34;8.78;99403.53;5032480;28;20063;-76
2021/07/17 07:52:36;;;;;;;10.90;10.00;;;;;;;56.81;9.18;99408.34;5014250;28;20099;-77
2021/07/17 07:55:03;;;;;;;10.95;9.85;;;;;;;56.68;8.31;99416.63;4997864;28;20037;-77
2021/07/17 07:57:29;;;;;;;10.95;9.98;;;;;;;56.50;8.96;99401.84;5014547;28;20393;-77
2021/07/17 07:59:55;;;;;;;9.57;8.93;;;;;;;56.53;8.21;99409.56;5031283;28;20044;-75
2021/07/17 08:02:21;;;;;;;10.52;9.65;;;;;;;56.48;8.36;99414.50;5033427;28;20042;-77
2021/07/17 08:04:47;;;;;;;10.70;9.80;;;;;;;56.00;8.66;99394.03;5015118;28;20060;-79
2021/07/17 08:07:13;;;;;;;11.95;9.50;;;;;;;55.87;8.00;99406.94;5007472;28;20354;-77
2021/07/17 08:09:39;;;;;;;9.95;9.10;;;;;;;55.87;8.47;99396.63;5032598;28;20053;-78
2021/07/17 08:12:05;;;;;;;10.70;9.57;;;;;;;56.21;8.09;99400.56;5030430;28;20048;-77
2021/07/17 08:14:31;;;;;;;10.77;9.93;;;;;;;55.56;8.23;99397.56;5034157;28;20084;-77
2021/07/17 08:17:02;;;;;;;10.32;9.40;;;;;;;54.24;8.69;99393.31;4998064;28;20077;-78
2021/07/17 08:19:29;;;;;;;10.32;9.43;;;;;;;53.15;8.98;99387.31;5022341;28;20041;-76
2021/07/17 08:22:13;;;;;;;9.55;8.60;;;;;;;52.78;9.26;99381.59;5028579;28;20069;-79
2021/07/17 08:24:40;;;;;;;9.68;8.88;;;;;;;52.00;10.23;99376.50;4997145;28;20037;-77
2021/07/17 08:27:06;;;;;;;9.57;8.68;;;;;;;51.50;10.21;99369.41;5014088;28;20053;-79
2021/07/17 08:29:32;;;;;;;9.18;8.57;;;;;;;49.88;11.21;99387.72;4995717;28;20046;-78
2021/07/17 08:31:58;;;;;;;9.75;8.85;;;;;;;48.40;12.06;99372.03;4995363;28;20084;-78
2021/07/17 08:34:24;;;;;;;9.10;8.30;;;;;;;49.02;11.87;99367.56;4996686;28;20042;-78
2021/07/17 08:36:50;;;;;;;8.27;7.60;;;;;;;50.70;10.57;99362.50;5000402;28;20130;-78
2021/07/17 08:39:16;;;;;;;8.77;8.02;;;;;;;52.10;10.54;99370.81;4984521;28;20136;-77
2021/07/17 08:41:48;;;;;;;8.20;7.40;;;;;;;53.07;9.41;99382.50;4981464;28;20073;-76
2021/07/17 08:44:16;;;;;;;8.70;7.75;;;;;;;53.74;9.34;99370.00;4993738;28;20063;-77
2021/07/17 08:46:44;;;;;;;8.27;7.43;;;;;;;52.32;9.68;99368.53;5011584;28;20061;-78
2021/07/17 08:49:10;;;;;;;8.73;7.82;;;;;;;49.91;10.65;99364.22;4977947;28;20043;-78
2021/07/17 08:51:37;;;;;;;7.93;7.18;;;;;;;47.94;12.02;99361.78;4978058;28;20413;-80
2021/07/17 08:54:06;;;;;;;8.48;7.63;;;;;;;46.27;13.17;99363.75;5011978;28;20057;-77
2021/07/17 08:56:32;;;;;;;9.48;7.32;;;;;;;45.37;13.61;99361.34;5009949;28;20030;-78
2021/07/17 08:58:58;;;;;;;7.90;7.28;;;;;;;46.38;13.21;99364.69;4994007;28;20556;-79
2021/07/17 09:01:27;;;;;;;8.85;7.53;;;;;;;48.10;12.24;99359.03;4993763;28;20037;-78
2021/07/17 09:03:53;;;;;;;;;;;;;;;49.67;11.34;99356.59;5012248;28;20053;-76
2021/07/17 09:06:19;;;;;;;9.05;8.15;;;;;;;50.43;10.71;99359.16;4993201;28;19925;-78
2021/07/17 09:08:45;;;;;;;8.60;7.78;;;;;;;51.64;10.22;99363.16;4979426;28;20033;-78
2021/07/17 09:11:11;;;;;;;9.10;8.15;;;;;;;51.92;10.03;99368.88;4996047;28;20073;-77
2021/07/17 09:13:37;;;;;;;7.78;7.18;;;;;;;52.54;9.32;99354.81;5013486;28;20042;-79
2021/07/17 09:16:08;;;;;;;9.23;8.23;;;;;;;52.94;8.97;99367.47;5013500;28;20136;-80
2021/07/17 09:18:38;;;;;;;8.25;7.55;;;;;;;52.71;9.27;99362.59;5014734;28;20049;-79
2021/07/17 09:21:21;;;;;;;7.25;6.63;;;;;;;52.57;9.57;99367.28;5013765;28;20045;-78
2021/07/17 09:23:59;;;;;;;7.68;6.97;;;;;;;53.13;8.73;99351.53;5034019;28;20061;-77
2021/07/17 09:26:31;;;;;;;8.70;8.00;;;;;;;53.28;8.21;99350.44;5015161;28;20038;-78
2021/07/17 09:29:04;;;;;;;8.77;8.07;;;;;;;53.31;8.43;99355.34;4998779;28;20091;-78
2021/07/17 09:31:37;;;;;;;9.98;8.65;;;;;;;53.81;8.32;99350.91;5032901;28;20094;-79
2021/07/17 09:34:11;;;;;;;9.20;8.40;;;;;;;53.43;8.60;99349.25;5000163;28;20044;-77
2021/07/17 09:37:03;;;;;;;9.45;8.68;;;;;;;52.93;8.72;99343.63;5035420;28;20034;-78
2021/07/17 09:39:31;;;;;;;9.10;8.38;;;;;;;53.32;9.00;99345.06;5021963;28;20204;-77
2021/07/17 09:41:59;;;;;;;10.13;9.15;;;;;;;54.19;8.48;99341.41;4997426;28;20056;-76
2021/07/17 09:44:27;;;;;;;10.30;9.32;;;;;;;54.38;8.40;99302.28;5036397;28;20056;-78
2021/07/17 09:46:54;;;;;;;11.00;10.20;;;;;;;54.37;8.56;99334.03;5036681;28;20115;-78
2021/07/17 09:49:22;;;;;;;11.75;10.85;;;;;;;53.90;9.28;99335.13;5015366;28;20038;-78
2021/07/17 09:52:12;;;;;;;12.05;11.05;;;;;;;53.82;9.17;99324.75;5032698;28;20041;-78
2021/07/17 09:54:40;;;;;;;11.57;10.52;;;;;;;53.28;9.61;99328.19;5016030;28;20140;-80
2021/07/17 09:57:07;;;;;;;12.02;11.13;;;;;;;52.42;9.99;99321.22;5015678;28;20053;-79
2021/07/17 09:59:35;;;;;;;10.85;9.95;;;;;;;52.40;10.09;99296.56;5036411;28;20052;-77
2021/07/17 10:02:01;;;;;;;12.00;11.00;;;;;;;52.91;10.20;99310.56;5016426;28;20381;-78
2021/07/17 10:04:27;;;;;;;14.93;11.52;;;;;;;53.26;9.27;99310.16;5015162;28;20140;-78
2021/07/17 10:07:00;;;;;;;11.77;10.90;;;;;;;53.74;9.24;99303.31;5014641;28;20137;-77
2021/07/17 10:09:32;;;;;;;12.00;10.90;;;;;;;54.01;9.22;99295.97;5035472;28;20112;-78
2021/07/17 10:12:08;;;;;;;11.93;10.93;;;;;;;53.47;8.92;99293.88;5034816;28;20095;-77
2021/07/17 10:14:40;;;;;;;11.18;10.20;;;;;;;52.34;9.46;99283.91;4985719;28;20113;-78
2021/07/17 10:17:15;;;;;;;12.73;10.73;;;;;;;51.90;10.26;99282.38;5018137;28;20476;-78
2021/07/17 10:19:42;;;;;;;11.90;10.85;;;;;;;51.78;10.43;99263.47;5033858;28;20049;-77
2021/07/17 10:22:11;;;;;;;13.02;11.82;;;;;;;50.40;10.77;99275.94;5035340;28;20049;-79
2021/07/17 10:24:38;;;;;;;11.85;10.80;;;;;;;48.57;12.01;99295.63;5018817;28;20079;-77
2021/07/17 10:27:05;;;;;;;12.02;10.68;;;;;;;47.01;13.29;99281.53;5018840;28;20397;-76
2021/07/17 10:29:32;;;;;;;11.50;10.40;;;;;;;45.80;14.22;99288.25;5017462;28;20045;-78
2021/07/17 10:32:08;;;;;;;11.65;10.65;;;;;;;44.90;15.00;99292.13;5017374;28;20105;-78
2021/07/17 10:34:37;;;;;;;11.90;10.90;;;;;;;44.25;15.56;99283.38;5018049;28;20507;-78
2021/07/17 10:37:17;;;;;;;12.20;10.40;;;;;;;44.05;16.35;99287.44;5017295;28;20045;-78
2021/07/17 10:39:56;;;;;;;10.75;9.95;;;;;;;43.57;16.20;99283.22;5035574;28;20077;-78
2021/07/17 10:42:23;;;;;;;17.73;12.93;;;;;;;43.07;16.31;99280.00;5036123;28;20036;-80
2021/07/17 10:44:56;;;;;;;10.70;9.80;;;;;;;42.72;16.25;99298.06;5006619;28;20067;-78
2021/07/17 10:47:37;;;;;;;10.27;9.43;;;;;;;42.18;16.55;99273.53;5003651;28;20045;-80
2021/07/17 10:50:04;;;;;;;11.25;10.18;;;;;;;42.29;17.20;99288.28;5036431;28;20041;-78
2021/07/17 10:52:42;;;;;;;10.98;9.88;;;;;;;42.20;17.31;99265.94;5022751;28;20049;-76
2021/07/17 10:55:23;;;;;;;11.80;10.70;;;;;;;42.04;17.16;99275.63;5027945;28;20072;-79
2021/07/17 10:57:50;;;;;;;12.18;11.18;;;;;;;41.37;18.42;99285.53;5019854;28;20096;-77
2021/07/17 11:00:42;;;;;;;13.15;11.95;;;;;;;40.64;19.35;99281.63;5036451;28;20037;-76
2021/07/17 11:03:31;;;;;;;13.02;11.93;;;;;;;40.19;19.85;99275.25;5001582;28;20095;-79
2021/07/17 11:06:25;;;;;;;12.65;11.55;;;;;;;40.13;19.76;99269.88;5012505;28;20037;-77
2021/07/17 11:08:52;;;;;;;13.18;11.98;;;;;;;40.01;20.12;99253.41;5006647;28;20041;-78
2021/07/17 11:11:27;;;;;;;13.90;12.23;;;;;;;40.19;20.28;99280.72;5039635;28;20152;-79
2021/07/17 11:13:54;;;;;;;13.40;11.98;;;;;;;40.05;20.68;99279.16;5004241;28;20084;-77
2021/07/17 11:16:40;;;;;;;12.70;11.50;;;;;;;39.79;20.70;99285.56;5036232;28;20469;-78
2021/07/17 11:19:28;;;;;;;12.60;11.43;;;;;;;39.45;21.21;99281.09;5024388;28;20137;-80
2021/07/17 11:22:07;;;;;;;13.25;11.80;;;;;;;39.07;21.64;99256.53;5038615;28;20506;-78
2021/07/17 11:24:33;;;;;;;14.13;12.25;;;;;;;39.09;21.62;99277.00;5002578;28;20508;-77